sensor_id;sensor_type;location;lat;lon;timestamp;temperature;humidity
1976;DHT22;988;48.016;7.800;2023-05-16T00:00:01;14.40;99.90
1976;DHT22;988;48.016;7.800;2023-05-16T00:02:31;14.40;99.90
1976;DHT22;988;48.016;7.800;2023-05-16T00:04:56;14.50;99.90
1976;DHT22;988;48.016;7.800;2023-05-16T00:07:22;14.40;99.90
1976;DHT22;988;48.016;7.800;2023-05-16T00:09:48;14.50;99.90
1976;DHT22;988;48.016;7.800;2023-05-16T00:12:13;14.50;99.90
1976;DHT22;988;48.016;7.800;2023-05-16T00:14:39;14.50;99.90
1976;DHT22;988;48.016;7.800;2023-05-16T00:17:05;14.50;99.90
1976;DHT22;988;48.016;7.800;2023-05-16T00:19:36;14.50;99.90
1976;DHT22;988;48.016;7.800;2023-05-16T00:22:04;14.50;99.90
1976;DHT22;988;48.016;7.800;2023-05-16T00:24:29;14.40;99.90
1976;DHT22;988;48.016;7.800;2023-05-16T00:26:55;14.30;99.90
1976;DHT22;988;48.016;7.800;2023-05-16T00:29:21;14.20;99.90
1976;DHT22;988;48.016;7.800;2023-05-16T00:31:48;14.20;99.90
1976;DHT22;988;48.016;7.800;2023-05-16T00:34:14;14.20;99.90
1976;DHT22;988;48.016;7.800;2023-05-16T00:36:40;14.30;99.90
1976;DHT22;988;48.016;7.800;2023-05-16T00:39:05;14.20;99.90
1976;DHT22;988;48.016;7.800;2023-05-16T00:41:33;14.20;99.90
1976;DHT22;988;48.016;7.800;2023-05-16T00:43:58;14.40;99.90
1976;DHT22;988;48.016;7.800;2023-05-16T00:46:24;14.50;99.90
1976;DHT22;988;48.016;7.800;2023-05-16T00:48:50;14.60;99.90
1976;DHT22;988;48.016;7.800;2023-05-16T00:51:16;14.50;99.90
1976;DHT22;988;48.016;7.800;2023-05-16T00:53:42;14.60;99.90
1976;DHT22;988;48.016;7.800;2023-05-16T00:56:08;14.60;99.90
1976;DHT22;988;48.016;7.800;2023-05-16T00:58:35;14.50;99.90
1976;DHT22;988;48.016;7.800;2023-05-16T01:01:01;14.50;99.90
1976;DHT22;988;48.016;7.800;2023-05-16T01:03:28;14.60;99.90
1976;DHT22;988;48.016;7.800;2023-05-16T01:05:54;14.60;99.90
1976;DHT22;988;48.016;7.800;2023-05-16T01:08:20;14.60;99.90
1976;DHT22;988;48.016;7.800;2023-05-16T01:16:25;14.60;99.90
1976;DHT22;988;48.016;7.800;2023-05-16T01:18:59;14.50;99.90
1976;DHT22;988;48.016;7.800;2023-05-16T01:21:44;14.60;99.90
1976;DHT22;988;48.016;7.800;2023-05-16T01:24:32;14.70;99.90
1976;DHT22;988;48.016;7.800;2023-05-16T01:26:59;14.60;99.90
1976;DHT22;988;48.016;7.800;2023-05-16T01:29:24;14.60;99.90
1976;DHT22;988;48.016;7.800;2023-05-16T01:31:50;14.60;99.90
1976;DHT22;988;48.016;7.800;2023-05-16T01:34:16;14.60;99.90
1976;DHT22;988;48.016;7.800;2023-05-16T01:39:46;14.60;99.90
1976;DHT22;988;48.016;7.800;2023-05-16T01:42:15;14.60;99.90
1976;DHT22;988;48.016;7.800;2023-05-16T01:47:19;14.60;99.90
1976;DHT22;988;48.016;7.800;2023-05-16T01:49:56;14.50;99.90
1976;DHT22;988;48.016;7.800;2023-05-16T01:52:27;14.50;99.90
1976;DHT22;988;48.016;7.800;2023-05-16T01:54:57;14.50;99.90
1976;DHT22;988;48.016;7.800;2023-05-16T01:57:25;14.60;99.90
1976;DHT22;988;48.016;7.800;2023-05-16T01:59:51;14.70;99.90
1976;DHT22;988;48.016;7.800;2023-05-16T02:02:18;14.60;99.90
1976;DHT22;988;48.016;7.800;2023-05-16T02:04:43;14.60;99.90
1976;DHT22;988;48.016;7.800;2023-05-16T02:07:09;14.70;99.90
1976;DHT22;988;48.016;7.800;2023-05-16T02:09:35;14.70;99.90
1976;DHT22;988;48.016;7.800;2023-05-16T02:12:00;14.80;99.90
1976;DHT22;988;48.016;7.800;2023-05-16T02:14:26;14.80;99.90
1976;DHT22;988;48.016;7.800;2023-05-16T02:16:52;14.80;99.90
1976;DHT22;988;48.016;7.800;2023-05-16T02:19:18;14.80;99.90
1976;DHT22;988;48.016;7.800;2023-05-16T02:21:43;14.80;99.90
1976;DHT22;988;48.016;7.800;2023-05-16T02:24:09;14.80;99.90
1976;DHT22;988;48.016;7.800;2023-05-16T02:26:34;14.70;99.90
1976;DHT22;988;48.016;7.800;2023-05-16T02:29:00;14.70;99.90
1976;DHT22;988;48.016;7.800;2023-05-16T02:31:27;14.70;99.90
1976;DHT22;988;48.016;7.800;2023-05-16T02:33:53;14.70;99.90
1976;DHT22;988;48.016;7.800;2023-05-16T02:36:19;14.70;99.90
1976;DHT22;988;48.016;7.800;2023-05-16T02:38:45;14.70;99.90
1976;DHT22;988;48.016;7.800;2023-05-16T02:41:11;14.70;99.90
1976;DHT22;988;48.016;7.800;2023-05-16T02:43:37;14.70;99.90
1976;DHT22;988;48.016;7.800;2023-05-16T02:46:22;14.60;99.90
1976;DHT22;988;48.016;7.800;2023-05-16T02:48:49;14.50;99.90
1976;DHT22;988;48.016;7.800;2023-05-16T02:51:15;14.50;99.90
1976;DHT22;988;48.016;7.800;2023-05-16T02:53:41;14.50;99.90
1976;DHT22;988;48.016;7.800;2023-05-16T02:56:06;14.30;99.90
1976;DHT22;988;48.016;7.800;2023-05-16T02:58:33;14.40;99.90
1976;DHT22;988;48.016;7.800;2023-05-16T03:00:58;14.50;99.90
1976;DHT22;988;48.016;7.800;2023-05-16T03:03:24;14.50;99.90
1976;DHT22;988;48.016;7.800;2023-05-16T03:05:49;14.50;99.90
1976;DHT22;988;48.016;7.800;2023-05-16T03:08:16;14.60;99.90
1976;DHT22;988;48.016;7.800;2023-05-16T03:10:42;14.40;99.90
1976;DHT22;988;48.016;7.800;2023-05-16T03:13:07;14.40;99.90
1976;DHT22;988;48.016;7.800;2023-05-16T03:15:33;14.50;99.90
1976;DHT22;988;48.016;7.800;2023-05-16T03:17:58;14.50;99.90
1976;DHT22;988;48.016;7.800;2023-05-16T03:20:24;14.50;99.90
1976;DHT22;988;48.016;7.800;2023-05-16T03:22:49;14.60;99.90
1976;DHT22;988;48.016;7.800;2023-05-16T03:25:15;14.70;99.90
1976;DHT22;988;48.016;7.800;2023-05-16T03:27:41;14.60;99.90
1976;DHT22;988;48.016;7.800;2023-05-16T03:30:07;14.60;99.90
1976;DHT22;988;48.016;7.800;2023-05-16T03:32:33;14.60;99.90
1976;DHT22;988;48.016;7.800;2023-05-16T03:34:58;14.50;99.90
1976;DHT22;988;48.016;7.800;2023-05-16T03:37:24;14.20;99.90
1976;DHT22;988;48.016;7.800;2023-05-16T03:39:50;14.20;99.90
1976;DHT22;988;48.016;7.800;2023-05-16T03:42:16;14.30;99.90
1976;DHT22;988;48.016;7.800;2023-05-16T03:44:43;14.50;99.90
1976;DHT22;988;48.016;7.800;2023-05-16T03:47:08;14.40;99.90
1976;DHT22;988;48.016;7.800;2023-05-16T03:49:34;14.30;99.90
1976;DHT22;988;48.016;7.800;2023-05-16T03:52:02;14.40;99.90
1976;DHT22;988;48.016;7.800;2023-05-16T03:54:28;14.30;99.90
1976;DHT22;988;48.016;7.800;2023-05-16T03:56:53;14.20;99.90
1976;DHT22;988;48.016;7.800;2023-05-16T03:59:19;14.30;99.90
1976;DHT22;988;48.016;7.800;2023-05-16T04:01:45;14.20;99.90
1976;DHT22;988;48.016;7.800;2023-05-16T04:04:10;14.30;99.90
1976;DHT22;988;48.016;7.800;2023-05-16T04:06:36;14.30;99.90
1976;DHT22;988;48.016;7.800;2023-05-16T04:09:01;14.20;99.90
1976;DHT22;988;48.016;7.800;2023-05-16T04:11:27;14.20;99.90
1976;DHT22;988;48.016;7.800;2023-05-16T04:13:54;14.20;99.90
1976;DHT22;988;48.016;7.800;2023-05-16T04:16:19;14.10;99.90
1976;DHT22;988;48.016;7.800;2023-05-16T04:18:45;14.20;99.90
1976;DHT22;988;48.016;7.800;2023-05-16T04:21:11;14.30;99.90
1976;DHT22;988;48.016;7.800;2023-05-16T04:23:40;14.30;99.90
1976;DHT22;988;48.016;7.800;2023-05-16T04:26:05;14.40;99.90
1976;DHT22;988;48.016;7.800;2023-05-16T04:28:31;14.00;99.90
1976;DHT22;988;48.016;7.800;2023-05-16T04:30:57;14.20;99.90
1976;DHT22;988;48.016;7.800;2023-05-16T04:33:22;14.10;99.90
1976;DHT22;988;48.016;7.800;2023-05-16T04:35:48;14.10;99.90
1976;DHT22;988;48.016;7.800;2023-05-16T04:38:14;14.20;99.90
1976;DHT22;988;48.016;7.800;2023-05-16T04:40:40;14.10;99.90
1976;DHT22;988;48.016;7.800;2023-05-16T04:43:08;14.00;99.90
1976;DHT22;988;48.016;7.800;2023-05-16T04:45:33;13.90;99.90
1976;DHT22;988;48.016;7.800;2023-05-16T04:48:00;13.80;99.90
1976;DHT22;988;48.016;7.800;2023-05-16T04:50:28;13.90;99.90
1976;DHT22;988;48.016;7.800;2023-05-16T04:52:53;13.90;99.90
1976;DHT22;988;48.016;7.800;2023-05-16T04:55:19;14.10;99.90
1976;DHT22;988;48.016;7.800;2023-05-16T04:57:44;14.20;99.90
1976;DHT22;988;48.016;7.800;2023-05-16T05:00:11;14.10;99.90
1976;DHT22;988;48.016;7.800;2023-05-16T05:02:37;14.00;99.90
1976;DHT22;988;48.016;7.800;2023-05-16T05:05:04;13.90;99.90
1976;DHT22;988;48.016;7.800;2023-05-16T05:07:31;14.00;99.90
1976;DHT22;988;48.016;7.800;2023-05-16T05:09:56;14.10;99.90
1976;DHT22;988;48.016;7.800;2023-05-16T05:12:22;14.10;99.90
1976;DHT22;988;48.016;7.800;2023-05-16T05:14:47;14.20;99.90
1976;DHT22;988;48.016;7.800;2023-05-16T05:17:13;14.10;99.90
1976;DHT22;988;48.016;7.800;2023-05-16T05:19:39;14.20;99.90
1976;DHT22;988;48.016;7.800;2023-05-16T05:22:04;14.30;99.90
1976;DHT22;988;48.016;7.800;2023-05-16T05:24:30;14.30;99.90
1976;DHT22;988;48.016;7.800;2023-05-16T05:26:56;14.30;99.90
1976;DHT22;988;48.016;7.800;2023-05-16T05:29:21;14.20;99.90
1976;DHT22;988;48.016;7.800;2023-05-16T05:31:47;14.10;99.90
1976;DHT22;988;48.016;7.800;2023-05-16T05:34:13;14.00;99.90
1976;DHT22;988;48.016;7.800;2023-05-16T05:36:38;14.20;99.90
1976;DHT22;988;48.016;7.800;2023-05-16T05:39:04;14.00;99.90
1976;DHT22;988;48.016;7.800;2023-05-16T05:41:30;13.90;99.90
1976;DHT22;988;48.016;7.800;2023-05-16T05:43:56;13.90;99.90
1976;DHT22;988;48.016;7.800;2023-05-16T05:46:22;13.70;99.90
1976;DHT22;988;48.016;7.800;2023-05-16T05:48:48;13.80;99.90
1976;DHT22;988;48.016;7.800;2023-05-16T05:51:14;13.60;99.90
1976;DHT22;988;48.016;7.800;2023-05-16T05:53:40;13.60;99.90
1976;DHT22;988;48.016;7.800;2023-05-16T05:56:06;13.70;99.90
1976;DHT22;988;48.016;7.800;2023-05-16T05:58:31;13.80;99.90
1976;DHT22;988;48.016;7.800;2023-05-16T06:00:57;13.80;99.90
1976;DHT22;988;48.016;7.800;2023-05-16T06:03:23;13.70;99.90
1976;DHT22;988;48.016;7.800;2023-05-16T06:05:48;13.70;99.90
1976;DHT22;988;48.016;7.800;2023-05-16T06:08:14;13.70;99.90
1976;DHT22;988;48.016;7.800;2023-05-16T06:10:40;13.60;99.90
1976;DHT22;988;48.016;7.800;2023-05-16T06:13:05;13.60;99.90
1976;DHT22;988;48.016;7.800;2023-05-16T06:15:31;13.70;99.90
1976;DHT22;988;48.016;7.800;2023-05-16T06:17:56;13.60;99.90
1976;DHT22;988;48.016;7.800;2023-05-16T06:20:22;13.60;99.90
1976;DHT22;988;48.016;7.800;2023-05-16T06:22:48;13.50;99.90
1976;DHT22;988;48.016;7.800;2023-05-16T06:25:13;13.50;99.90
1976;DHT22;988;48.016;7.800;2023-05-16T06:27:39;13.50;99.90
1976;DHT22;988;48.016;7.800;2023-05-16T06:30:05;13.40;99.90
1976;DHT22;988;48.016;7.800;2023-05-16T06:32:31;13.40;99.90
1976;DHT22;988;48.016;7.800;2023-05-16T06:34:56;13.30;99.90
1976;DHT22;988;48.016;7.800;2023-05-16T06:37:22;13.40;99.90
1976;DHT22;988;48.016;7.800;2023-05-16T06:39:48;13.40;99.90
1976;DHT22;988;48.016;7.800;2023-05-16T06:42:13;13.60;99.90
1976;DHT22;988;48.016;7.800;2023-05-16T06:44:39;13.70;99.90
1976;DHT22;988;48.016;7.800;2023-05-16T06:47:05;13.70;99.90
1976;DHT22;988;48.016;7.800;2023-05-16T06:49:31;13.60;99.90
1976;DHT22;988;48.016;7.800;2023-05-16T06:51:57;13.50;99.90
1976;DHT22;988;48.016;7.800;2023-05-16T06:54:22;13.50;99.90
1976;DHT22;988;48.016;7.800;2023-05-16T06:56:48;13.70;99.90
1976;DHT22;988;48.016;7.800;2023-05-16T06:59:14;13.80;99.90
1976;DHT22;988;48.016;7.800;2023-05-16T07:01:39;13.90;99.90
1976;DHT22;988;48.016;7.800;2023-05-16T07:04:06;14.10;99.90
1976;DHT22;988;48.016;7.800;2023-05-16T07:06:31;14.10;99.90
1976;DHT22;988;48.016;7.800;2023-05-16T07:08:57;14.10;99.90
1976;DHT22;988;48.016;7.800;2023-05-16T07:11:23;14.10;99.90
1976;DHT22;988;48.016;7.800;2023-05-16T07:13:48;13.90;99.90
1976;DHT22;988;48.016;7.800;2023-05-16T07:16:14;13.90;99.90
1976;DHT22;988;48.016;7.800;2023-05-16T07:18:40;14.10;99.90
1976;DHT22;988;48.016;7.800;2023-05-16T07:21:05;14.20;99.90
1976;DHT22;988;48.016;7.800;2023-05-16T07:23:31;14.20;99.90
1976;DHT22;988;48.016;7.800;2023-05-16T07:25:57;14.10;99.90
1976;DHT22;988;48.016;7.800;2023-05-16T07:28:23;14.10;99.90
1976;DHT22;988;48.016;7.800;2023-05-16T07:30:48;13.90;99.90
1976;DHT22;988;48.016;7.800;2023-05-16T07:33:14;13.70;99.90
1976;DHT22;988;48.016;7.800;2023-05-16T07:35:39;14.00;99.90
1976;DHT22;988;48.016;7.800;2023-05-16T07:38:05;13.90;99.90
1976;DHT22;988;48.016;7.800;2023-05-16T07:40:31;14.00;99.90
1976;DHT22;988;48.016;7.800;2023-05-16T07:42:56;14.00;99.90
1976;DHT22;988;48.016;7.800;2023-05-16T07:45:22;14.20;99.90
1976;DHT22;988;48.016;7.800;2023-05-16T07:47:48;14.30;99.90
1976;DHT22;988;48.016;7.800;2023-05-16T07:50:13;14.30;99.90
1976;DHT22;988;48.016;7.800;2023-05-16T07:52:39;14.10;99.90
1976;DHT22;988;48.016;7.800;2023-05-16T07:55:05;14.20;99.90
1976;DHT22;988;48.016;7.800;2023-05-16T07:57:31;14.30;99.90
1976;DHT22;988;48.016;7.800;2023-05-16T07:59:57;14.30;99.90
1976;DHT22;988;48.016;7.800;2023-05-16T08:02:23;14.40;99.90
1976;DHT22;988;48.016;7.800;2023-05-16T08:04:50;14.30;99.90
1976;DHT22;988;48.016;7.800;2023-05-16T08:07:16;14.30;99.90
1976;DHT22;988;48.016;7.800;2023-05-16T08:09:41;14.40;99.90
1976;DHT22;988;48.016;7.800;2023-05-16T08:12:08;14.30;99.90
1976;DHT22;988;48.016;7.800;2023-05-16T08:14:33;14.60;99.90
1976;DHT22;988;48.016;7.800;2023-05-16T08:17:01;14.70;99.90
1976;DHT22;988;48.016;7.800;2023-05-16T08:19:27;14.60;99.90
1976;DHT22;988;48.016;7.800;2023-05-16T08:21:53;14.50;99.90
1976;DHT22;988;48.016;7.800;2023-05-16T08:24:19;14.50;99.90
1976;DHT22;988;48.016;7.800;2023-05-16T08:26:45;14.50;99.90
1976;DHT22;988;48.016;7.800;2023-05-16T08:29:10;14.80;99.90
1976;DHT22;988;48.016;7.800;2023-05-16T08:31:36;14.90;99.90
1976;DHT22;988;48.016;7.800;2023-05-16T08:34:01;14.90;99.90
1976;DHT22;988;48.016;7.800;2023-05-16T08:36:30;14.90;99.90
1976;DHT22;988;48.016;7.800;2023-05-16T08:38:59;15.00;99.90
1976;DHT22;988;48.016;7.800;2023-05-16T08:41:24;15.10;99.90
1976;DHT22;988;48.016;7.800;2023-05-16T08:43:51;14.80;99.90
1976;DHT22;988;48.016;7.800;2023-05-16T08:46:21;14.90;99.90
1976;DHT22;988;48.016;7.800;2023-05-16T08:48:50;14.80;99.90
1976;DHT22;988;48.016;7.800;2023-05-16T08:51:18;14.80;99.90
1976;DHT22;988;48.016;7.800;2023-05-16T08:53:48;14.90;99.90
1976;DHT22;988;48.016;7.800;2023-05-16T08:56:15;14.90;99.90
1976;DHT22;988;48.016;7.800;2023-05-16T08:58:41;14.80;99.90
1976;DHT22;988;48.016;7.800;2023-05-16T09:01:08;14.90;99.90
1976;DHT22;988;48.016;7.800;2023-05-16T09:03:37;14.80;99.90
1976;DHT22;988;48.016;7.800;2023-05-16T09:06:04;14.80;99.90
1976;DHT22;988;48.016;7.800;2023-05-16T09:08:31;14.90;99.90
1976;DHT22;988;48.016;7.800;2023-05-16T09:10:56;14.80;99.90
1976;DHT22;988;48.016;7.800;2023-05-16T09:13:23;14.80;99.90
1976;DHT22;988;48.016;7.800;2023-05-16T09:18:32;14.50;99.90
1976;DHT22;988;48.016;7.800;2023-05-16T09:20:59;14.50;99.90
1976;DHT22;988;48.016;7.800;2023-05-16T09:23:25;14.40;99.90
1976;DHT22;988;48.016;7.800;2023-05-16T09:25:52;14.40;99.90
1976;DHT22;988;48.016;7.800;2023-05-16T09:28:18;14.50;99.90
1976;DHT22;988;48.016;7.800;2023-05-16T09:30:45;14.50;99.90
1976;DHT22;988;48.016;7.800;2023-05-16T09:33:11;14.60;99.90
1976;DHT22;988;48.016;7.800;2023-05-16T09:35:36;14.50;99.90
1976;DHT22;988;48.016;7.800;2023-05-16T09:38:02;14.40;99.90
1976;DHT22;988;48.016;7.800;2023-05-16T09:40:28;14.40;99.90
1976;DHT22;988;48.016;7.800;2023-05-16T09:43:05;14.20;99.90
1976;DHT22;988;48.016;7.800;2023-05-16T09:45:31;14.30;99.90
1976;DHT22;988;48.016;7.800;2023-05-16T09:48:07;14.30;99.90
1976;DHT22;988;48.016;7.800;2023-05-16T09:50:34;14.40;99.90
1976;DHT22;988;48.016;7.800;2023-05-16T09:53:00;14.30;99.90
1976;DHT22;988;48.016;7.800;2023-05-16T09:55:26;14.30;99.90
1976;DHT22;988;48.016;7.800;2023-05-16T09:57:52;14.30;99.90
1976;DHT22;988;48.016;7.800;2023-05-16T10:00:18;14.10;99.90
1976;DHT22;988;48.016;7.800;2023-05-16T10:02:43;14.10;99.90
1976;DHT22;988;48.016;7.800;2023-05-16T10:05:10;14.10;99.90
1976;DHT22;988;48.016;7.800;2023-05-16T10:07:36;14.20;99.90
1976;DHT22;988;48.016;7.800;2023-05-16T10:10:07;14.30;99.90
1976;DHT22;988;48.016;7.800;2023-05-16T10:12:34;14.40;99.90
1976;DHT22;988;48.016;7.800;2023-05-16T10:15:02;14.30;99.90
1976;DHT22;988;48.016;7.800;2023-05-16T10:17:31;14.40;99.90
1976;DHT22;988;48.016;7.800;2023-05-16T10:20:00;14.60;99.90
1976;DHT22;988;48.016;7.800;2023-05-16T10:22:32;14.30;99.90
1976;DHT22;988;48.016;7.800;2023-05-16T10:25:37;14.40;99.90
1976;DHT22;988;48.016;7.800;2023-05-16T10:28:04;14.60;99.90
1976;DHT22;988;48.016;7.800;2023-05-16T10:30:33;14.80;99.90
1976;DHT22;988;48.016;7.800;2023-05-16T10:33:00;14.90;99.90
1976;DHT22;988;48.016;7.800;2023-05-16T10:35:26;14.90;99.90
1976;DHT22;988;48.016;7.800;2023-05-16T10:37:52;14.80;99.90
1976;DHT22;988;48.016;7.800;2023-05-16T10:40:18;14.70;99.90
1976;DHT22;988;48.016;7.800;2023-05-16T10:43:01;14.90;99.90
1976;DHT22;988;48.016;7.800;2023-05-16T10:45:28;14.80;99.90
1976;DHT22;988;48.016;7.800;2023-05-16T10:53:31;14.50;99.90
1976;DHT22;988;48.016;7.800;2023-05-16T11:01:33;14.30;99.90
1976;DHT22;988;48.016;7.800;2023-05-16T11:04:08;14.10;99.90
1976;DHT22;988;48.016;7.800;2023-05-16T11:09:11;14.30;99.90
1976;DHT22;988;48.016;7.800;2023-05-16T11:14:22;14.60;99.90
1976;DHT22;988;48.016;7.800;2023-05-16T11:17:00;14.70;99.90
1976;DHT22;988;48.016;7.800;2023-05-16T11:25:05;14.70;99.90
1976;DHT22;988;48.016;7.800;2023-05-16T11:27:33;14.90;99.90
1976;DHT22;988;48.016;7.800;2023-05-16T11:32:34;15.10;99.90
1976;DHT22;988;48.016;7.800;2023-05-16T11:35:00;15.30;99.90
1976;DHT22;988;48.016;7.800;2023-05-16T11:37:29;15.50;99.90
1976;DHT22;988;48.016;7.800;2023-05-16T11:40:02;15.40;99.90
1976;DHT22;988;48.016;7.800;2023-05-16T11:42:34;15.40;99.90
1976;DHT22;988;48.016;7.800;2023-05-16T11:45:07;15.40;99.90
1976;DHT22;988;48.016;7.800;2023-05-16T11:47:35;15.30;99.90
1976;DHT22;988;48.016;7.800;2023-05-16T11:50:06;15.60;99.90
1976;DHT22;988;48.016;7.800;2023-05-16T11:52:34;15.70;99.90
1976;DHT22;988;48.016;7.800;2023-05-16T11:55:00;15.60;99.90
1976;DHT22;988;48.016;7.800;2023-05-16T11:57:26;15.30;99.90
1976;DHT22;988;48.016;7.800;2023-05-16T11:59:52;15.10;99.90
1976;DHT22;988;48.016;7.800;2023-05-16T12:02:19;15.20;99.90
1976;DHT22;988;48.016;7.800;2023-05-16T12:04:45;15.10;99.90
1976;DHT22;988;48.016;7.800;2023-05-16T12:07:13;15.20;99.90
1976;DHT22;988;48.016;7.800;2023-05-16T12:09:39;15.30;99.90
1976;DHT22;988;48.016;7.800;2023-05-16T12:12:05;15.20;99.90
1976;DHT22;988;48.016;7.800;2023-05-16T12:14:31;15.20;99.90
1976;DHT22;988;48.016;7.800;2023-05-16T12:16:57;15.30;99.90
1976;DHT22;988;48.016;7.800;2023-05-16T12:19:23;15.20;99.90
1976;DHT22;988;48.016;7.800;2023-05-16T12:21:52;15.30;99.90
1976;DHT22;988;48.016;7.800;2023-05-16T12:24:18;15.20;99.90
1976;DHT22;988;48.016;7.800;2023-05-16T12:26:45;14.90;99.90
1976;DHT22;988;48.016;7.800;2023-05-16T12:29:10;15.00;99.90
1976;DHT22;988;48.016;7.800;2023-05-16T12:31:38;15.10;99.90
1976;DHT22;988;48.016;7.800;2023-05-16T12:34:04;15.40;99.90
1976;DHT22;988;48.016;7.800;2023-05-16T12:36:38;15.70;99.90
1976;DHT22;988;48.016;7.800;2023-05-16T12:39:04;15.50;99.90
1976;DHT22;988;48.016;7.800;2023-05-16T12:41:30;15.60;99.90
1976;DHT22;988;48.016;7.800;2023-05-16T12:44:15;15.70;99.90
1976;DHT22;988;48.016;7.800;2023-05-16T12:46:46;15.80;99.90
1976;DHT22;988;48.016;7.800;2023-05-16T12:49:14;16.10;99.90
1976;DHT22;988;48.016;7.800;2023-05-16T12:51:39;16.20;99.90
1976;DHT22;988;48.016;7.800;2023-05-16T12:54:07;16.50;99.90
1976;DHT22;988;48.016;7.800;2023-05-16T12:56:33;16.70;99.90
1976;DHT22;988;48.016;7.800;2023-05-16T12:58:59;16.70;99.90
1976;DHT22;988;48.016;7.800;2023-05-16T13:01:25;16.00;99.90
1976;DHT22;988;48.016;7.800;2023-05-16T13:03:50;16.10;99.90
1976;DHT22;988;48.016;7.800;2023-05-16T13:06:16;16.00;99.90
1976;DHT22;988;48.016;7.800;2023-05-16T13:08:41;16.00;99.90
1976;DHT22;988;48.016;7.800;2023-05-16T13:11:07;15.90;99.90
1976;DHT22;988;48.016;7.800;2023-05-16T13:13:32;15.40;99.90
1976;DHT22;988;48.016;7.800;2023-05-16T13:15:58;15.20;99.90
1976;DHT22;988;48.016;7.800;2023-05-16T13:18:24;14.80;99.90
1976;DHT22;988;48.016;7.800;2023-05-16T13:20:50;14.90;99.90
1976;DHT22;988;48.016;7.800;2023-05-16T13:23:17;14.60;99.90
1976;DHT22;988;48.016;7.800;2023-05-16T13:25:43;14.40;99.90
1976;DHT22;988;48.016;7.800;2023-05-16T13:28:08;14.60;99.90
1976;DHT22;988;48.016;7.800;2023-05-16T13:30:35;14.80;99.90
1976;DHT22;988;48.016;7.800;2023-05-16T13:33:01;14.40;99.90
1976;DHT22;988;48.016;7.800;2023-05-16T13:35:27;14.60;99.90
1976;DHT22;988;48.016;7.800;2023-05-16T13:37:52;14.40;99.90
1976;DHT22;988;48.016;7.800;2023-05-16T13:40:18;14.30;99.90
1976;DHT22;988;48.016;7.800;2023-05-16T13:42:43;14.40;99.90
1976;DHT22;988;48.016;7.800;2023-05-16T13:45:09;14.10;99.90
1976;DHT22;988;48.016;7.800;2023-05-16T13:47:35;14.40;99.90
1976;DHT22;988;48.016;7.800;2023-05-16T13:50:01;14.50;99.90
1976;DHT22;988;48.016;7.800;2023-05-16T13:52:33;14.60;99.90
1976;DHT22;988;48.016;7.800;2023-05-16T13:54:59;14.40;99.90
1976;DHT22;988;48.016;7.800;2023-05-16T13:57:24;14.40;99.90
1976;DHT22;988;48.016;7.800;2023-05-16T13:59:52;14.30;99.90
1976;DHT22;988;48.016;7.800;2023-05-16T14:02:18;14.30;99.90
1976;DHT22;988;48.016;7.800;2023-05-16T14:04:43;14.30;99.90
1976;DHT22;988;48.016;7.800;2023-05-16T14:07:09;14.10;99.90
1976;DHT22;988;48.016;7.800;2023-05-16T14:09:35;14.30;99.90
1976;DHT22;988;48.016;7.800;2023-05-16T14:12:04;14.20;99.90
1976;DHT22;988;48.016;7.800;2023-05-16T14:14:32;14.10;99.90
1976;DHT22;988;48.016;7.800;2023-05-16T14:16:57;14.10;99.90
1976;DHT22;988;48.016;7.800;2023-05-16T14:19:23;14.10;99.90
1976;DHT22;988;48.016;7.800;2023-05-16T14:21:49;14.00;99.90
1976;DHT22;988;48.016;7.800;2023-05-16T14:24:14;14.00;99.90
1976;DHT22;988;48.016;7.800;2023-05-16T14:26:40;14.00;99.90
1976;DHT22;988;48.016;7.800;2023-05-16T14:29:06;14.00;99.90
1976;DHT22;988;48.016;7.800;2023-05-16T14:31:32;14.00;99.90
1976;DHT22;988;48.016;7.800;2023-05-16T14:33:57;14.00;99.90
1976;DHT22;988;48.016;7.800;2023-05-16T14:36:24;14.10;99.90
1976;DHT22;988;48.016;7.800;2023-05-16T14:38:49;14.30;99.90
1976;DHT22;988;48.016;7.800;2023-05-16T14:41:16;14.20;99.90
1976;DHT22;988;48.016;7.800;2023-05-16T14:43:41;14.20;99.90
1976;DHT22;988;48.016;7.800;2023-05-16T14:46:07;14.50;99.90
1976;DHT22;988;48.016;7.800;2023-05-16T14:48:32;14.60;99.90
1976;DHT22;988;48.016;7.800;2023-05-16T14:50:58;14.70;99.90
1976;DHT22;988;48.016;7.800;2023-05-16T14:53:24;14.80;99.90
1976;DHT22;988;48.016;7.800;2023-05-16T14:55:50;14.90;99.90
1976;DHT22;988;48.016;7.800;2023-05-16T14:58:15;15.00;99.90
1976;DHT22;988;48.016;7.800;2023-05-16T15:00:41;15.00;99.90
1976;DHT22;988;48.016;7.800;2023-05-16T15:03:06;14.80;99.90
1976;DHT22;988;48.016;7.800;2023-05-16T15:05:33;14.80;99.90
1976;DHT22;988;48.016;7.800;2023-05-16T15:07:58;15.10;99.90
1976;DHT22;988;48.016;7.800;2023-05-16T15:10:24;15.30;99.90
1976;DHT22;988;48.016;7.800;2023-05-16T15:12:50;15.30;99.90
1976;DHT22;988;48.016;7.800;2023-05-16T15:15:16;15.10;99.90
1976;DHT22;988;48.016;7.800;2023-05-16T15:17:41;14.90;99.90
1976;DHT22;988;48.016;7.800;2023-05-16T15:20:08;14.80;99.90
1976;DHT22;988;48.016;7.800;2023-05-16T15:22:38;14.80;99.90
1976;DHT22;988;48.016;7.800;2023-05-16T15:25:05;14.90;99.90
1976;DHT22;988;48.016;7.800;2023-05-16T15:27:31;14.70;99.90
1976;DHT22;988;48.016;7.800;2023-05-16T15:29:57;14.50;99.90
1976;DHT22;988;48.016;7.800;2023-05-16T15:32:23;14.10;99.90
1976;DHT22;988;48.016;7.800;2023-05-16T15:34:49;14.20;99.90
1976;DHT22;988;48.016;7.800;2023-05-16T15:37:14;14.30;99.90
1976;DHT22;988;48.016;7.800;2023-05-16T15:39:40;14.30;99.90
1976;DHT22;988;48.016;7.800;2023-05-16T15:42:07;14.40;99.90
1976;DHT22;988;48.016;7.800;2023-05-16T15:44:33;14.30;99.90
1976;DHT22;988;48.016;7.800;2023-05-16T15:46:59;14.10;99.90
1976;DHT22;988;48.016;7.800;2023-05-16T15:49:25;14.00;99.90
1976;DHT22;988;48.016;7.800;2023-05-16T15:51:52;14.00;99.90
1976;DHT22;988;48.016;7.800;2023-05-16T15:54:19;14.10;99.90
1976;DHT22;988;48.016;7.800;2023-05-16T15:56:44;14.10;99.90
1976;DHT22;988;48.016;7.800;2023-05-16T15:59:10;14.20;99.90
1976;DHT22;988;48.016;7.800;2023-05-16T16:01:36;13.80;99.90
1976;DHT22;988;48.016;7.800;2023-05-16T16:04:01;13.80;99.90
1976;DHT22;988;48.016;7.800;2023-05-16T16:06:27;13.80;99.90
1976;DHT22;988;48.016;7.800;2023-05-16T16:08:52;13.90;99.90
1976;DHT22;988;48.016;7.800;2023-05-16T16:11:18;13.70;99.90
1976;DHT22;988;48.016;7.800;2023-05-16T16:13:47;13.60;99.90
1976;DHT22;988;48.016;7.800;2023-05-16T16:16:14;13.60;99.90
1976;DHT22;988;48.016;7.800;2023-05-16T16:18:40;13.70;99.90
1976;DHT22;988;48.016;7.800;2023-05-16T16:21:07;13.70;99.90
1976;DHT22;988;48.016;7.800;2023-05-16T16:23:34;13.70;99.90
1976;DHT22;988;48.016;7.800;2023-05-16T16:26:00;13.70;99.90
1976;DHT22;988;48.016;7.800;2023-05-16T16:28:25;13.90;99.90
1976;DHT22;988;48.016;7.800;2023-05-16T16:30:51;13.70;99.90
1976;DHT22;988;48.016;7.800;2023-05-16T16:33:17;13.70;99.90
1976;DHT22;988;48.016;7.800;2023-05-16T16:35:42;13.80;99.90
1976;DHT22;988;48.016;7.800;2023-05-16T16:38:08;13.50;99.90
1976;DHT22;988;48.016;7.800;2023-05-16T16:40:34;13.60;99.90
1976;DHT22;988;48.016;7.800;2023-05-16T16:42:59;13.60;99.90
1976;DHT22;988;48.016;7.800;2023-05-16T16:45:25;13.60;99.90
1976;DHT22;988;48.016;7.800;2023-05-16T16:47:51;13.60;99.90
1976;DHT22;988;48.016;7.800;2023-05-16T16:50:17;13.70;99.90